sensor_id;sensor_type;location;lat;lon;timestamp;pressure;altitude;pressure_sealevel;temperature;humidity
60871;BME280;46714;50.118;14.462;2024-01-30T00:00:31;100721.13;;;-3.02;100.00
60871;BME280;46714;50.118;14.462;2024-01-30T00:02:56;100714.34;;;-3.07;100.00
60871;BME280;46714;50.118;14.462;2024-01-30T00:05:22;100722.59;;;-3.12;100.00
60871;BME280;46714;50.118;14.462;2024-01-30T00:07:47;100721.84;;;-3.14;100.00
60871;BME280;46714;50.118;14.462;2024-01-30T00:10:13;100716.50;;;-3.14;100.00
60871;BME280;46714;50.118;14.462;2024-01-30T00:12:38;100712.06;;;-3.13;100.00
60871;BME280;46714;50.118;14.462;2024-01-30T00:15:04;100712.31;;;-3.18;100.00
60871;BME280;46714;50.118;14.462;2024-01-30T00:17:30;100719.53;;;-3.20;100.00
60871;BME280;46714;50.118;14.462;2024-01-30T00:19:55;100717.81;;;-3.21;100.00
60871;BME280;46714;50.118;14.462;2024-01-30T00:22:21;100713.38;;;-3.21;100.00
60871;BME280;46714;50.118;14.462;2024-01-30T00:24:46;100715.16;;;-3.21;100.00
60871;BME280;46714;50.118;14.462;2024-01-30T00:27:12;100707.84;;;-3.18;100.00
60871;BME280;46714;50.118;14.462;2024-01-30T00:29:37;100702.44;;;-3.16;100.00
60871;BME280;46714;50.118;14.462;2024-01-30T00:32:02;100699.78;;;-3.16;100.00
60871;BME280;46714;50.118;14.462;2024-01-30T00:34:28;100692.72;;;-3.17;100.00
60871;BME280;46714;50.118;14.462;2024-01-30T00:36:53;100700.63;;;-3.16;100.00
60871;BME280;46714;50.118;14.462;2024-01-30T00:39:19;100701.50;;;-3.15;100.00
60871;BME280;46714;50.118;14.462;2024-01-30T00:41:44;100695.19;;;-3.14;100.00
60871;BME280;46714;50.118;14.462;2024-01-30T00:44:10;100697.97;;;-3.16;100.00
60871;BME280;46714;50.118;14.462;2024-01-30T00:46:35;100694.72;;;-3.21;100.00
60871;BME280;46714;50.118;14.462;2024-01-30T00:49:01;100693.84;;;-3.21;100.00
60871;BME280;46714;50.118;14.462;2024-01-30T00:51:26;100698.25;;;-3.20;100.00
60871;BME280;46714;50.118;14.462;2024-01-30T00:53:54;100699.94;;;-3.19;100.00
60871;BME280;46714;50.118;14.462;2024-01-30T00:56:20;100693.84;;;-3.21;100.00
60871;BME280;46714;50.118;14.462;2024-01-30T00:58:45;100699.16;;;-3.21;100.00
60871;BME280;46714;50.118;14.462;2024-01-30T01:01:11;100698.13;;;-3.19;100.00
60871;BME280;46714;50.118;14.462;2024-01-30T01:03:36;100695.31;;;-3.16;100.00
60871;BME280;46714;50.118;14.462;2024-01-30T01:06:01;100693.50;;;-3.15;100.00
60871;BME280;46714;50.118;14.462;2024-01-30T01:08:27;100689.03;;;-3.14;100.00
60871;BME280;46714;50.118;14.462;2024-01-30T01:10:52;100685.31;;;-3.12;100.00
60871;BME280;46714;50.118;14.462;2024-01-30T01:13:17;100686.28;;;-3.13;100.00
60871;BME280;46714;50.118;14.462;2024-01-30T01:15:43;100680.75;;;-3.10;100.00
60871;BME280;46714;50.118;14.462;2024-01-30T01:18:08;100676.13;;;-3.06;100.00
60871;BME280;46714;50.118;14.462;2024-01-30T01:20:33;100682.22;;;-3.04;100.00
60871;BME280;46714;50.118;14.462;2024-01-30T01:22:59;100679.44;;;-3.03;100.00
60871;BME280;46714;50.118;14.462;2024-01-30T01:25:24;100685.53;;;-3.01;100.00
60871;BME280;46714;50.118;14.462;2024-01-30T01:27:49;100680.13;;;-2.99;100.00
60871;BME280;46714;50.118;14.462;2024-01-30T01:30:17;100678.59;;;-3.03;100.00
60871;BME280;46714;50.118;14.462;2024-01-30T01:32:50;100674.31;;;-3.06;100.00
60871;BME280;46714;50.118;14.462;2024-01-30T01:35:23;100676.72;;;-3.01;100.00
60871;BME280;46714;50.118;14.462;2024-01-30T01:37:50;100677.47;;;-2.99;100.00
60871;BME280;46714;50.118;14.462;2024-01-30T01:40:22;100684.44;;;-2.97;100.00
60871;BME280;46714;50.118;14.462;2024-01-30T01:42:52;100689.84;;;-2.98;100.00
60871;BME280;46714;50.118;14.462;2024-01-30T01:45:19;100688.13;;;-2.99;100.00
60871;BME280;46714;50.118;14.462;2024-01-30T01:47:45;100675.59;;;-2.97;100.00
60871;BME280;46714;50.118;14.462;2024-01-30T01:50:13;100686.31;;;-2.99;100.00
60871;BME280;46714;50.118;14.462;2024-01-30T01:52:43;100680.06;;;-2.98;100.00
60871;BME280;46714;50.118;14.462;2024-01-30T01:55:10;100686.50;;;-3.02;100.00
60871;BME280;46714;50.118;14.462;2024-01-30T01:57:37;100683.16;;;-3.05;100.00
60871;BME280;46714;50.118;14.462;2024-01-30T02:00:03;100676.97;;;-3.06;100.00
60871;BME280;46714;50.118;14.462;2024-01-30T02:02:32;100677.75;;;-3.04;100.00
60871;BME280;46714;50.118;14.462;2024-01-30T02:05:01;100674.22;;;-3.04;100.00
60871;BME280;46714;50.118;14.462;2024-01-30T02:07:27;100676.13;;;-3.06;100.00
60871;BME280;46714;50.118;14.462;2024-01-30T02:09:53;100679.84;;;-3.09;100.00
60871;BME280;46714;50.118;14.462;2024-01-30T02:12:19;100674.00;;;-3.16;100.00
60871;BME280;46714;50.118;14.462;2024-01-30T02:14:45;100678.56;;;-3.18;100.00
60871;BME280;46714;50.118;14.462;2024-01-30T02:17:11;100677.00;;;-3.22;100.00
60871;BME280;46714;50.118;14.462;2024-01-30T02:19:37;100676.25;;;-3.24;100.00
60871;BME280;46714;50.118;14.462;2024-01-30T02:22:02;100673.78;;;-3.27;100.00
60871;BME280;46714;50.118;14.462;2024-01-30T02:24:28;100673.06;;;-3.30;100.00
60871;BME280;46714;50.118;14.462;2024-01-30T02:26:54;100690.16;;;-3.34;100.00
60871;BME280;46714;50.118;14.462;2024-01-30T02:29:20;100677.91;;;-3.37;100.00
60871;BME280;46714;50.118;14.462;2024-01-30T02:31:45;100687.69;;;-3.38;100.00
60871;BME280;46714;50.118;14.462;2024-01-30T02:34:11;100685.81;;;-3.35;100.00
60871;BME280;46714;50.118;14.462;2024-01-30T02:36:36;100687.63;;;-3.36;100.00
60871;BME280;46714;50.118;14.462;2024-01-30T02:39:02;100687.63;;;-3.36;100.00
60871;BME280;46714;50.118;14.462;2024-01-30T02:41:28;100676.78;;;-3.33;100.00
60871;BME280;46714;50.118;14.462;2024-01-30T02:43:53;100678.84;;;-3.38;100.00
60871;BME280;46714;50.118;14.462;2024-01-30T02:46:19;100674.84;;;-3.45;100.00
60871;BME280;46714;50.118;14.462;2024-01-30T02:48:44;100676.22;;;-3.54;100.00
60871;BME280;46714;50.118;14.462;2024-01-30T02:51:09;100672.69;;;-3.54;100.00
60871;BME280;46714;50.118;14.462;2024-01-30T02:53:35;100671.06;;;-3.57;100.00
60871;BME280;46714;50.118;14.462;2024-01-30T02:56:01;100667.44;;;-3.56;100.00
60871;BME280;46714;50.118;14.462;2024-01-30T02:58:27;100666.59;;;-3.56;100.00
60871;BME280;46714;50.118;14.462;2024-01-30T03:00:53;100672.78;;;-3.56;100.00
60871;BME280;46714;50.118;14.462;2024-01-30T03:03:18;100672.59;;;-3.53;100.00
60871;BME280;46714;50.118;14.462;2024-01-30T03:05:43;100663.69;;;-3.52;100.00
60871;BME280;46714;50.118;14.462;2024-01-30T03:08:09;100669.00;;;-3.52;100.00
60871;BME280;46714;50.118;14.462;2024-01-30T03:10:34;100671.66;;;-3.52;100.00
60871;BME280;46714;50.118;14.462;2024-01-30T03:13:00;100666.09;;;-3.63;100.00
60871;BME280;46714;50.118;14.462;2024-01-30T03:15:25;100668.16;;;-3.68;100.00
60871;BME280;46714;50.118;14.462;2024-01-30T03:17:50;100663.88;;;-3.71;100.00
60871;BME280;46714;50.118;14.462;2024-01-30T03:20:16;100664.81;;;-3.72;100.00
60871;BME280;46714;50.118;14.462;2024-01-30T03:22:41;100660.44;;;-3.73;100.00
60871;BME280;46714;50.118;14.462;2024-01-30T03:25:07;100658.88;;;-3.77;100.00
60871;BME280;46714;50.118;14.462;2024-01-30T03:27:32;100658.38;;;-3.84;100.00
60871;BME280;46714;50.118;14.462;2024-01-30T03:29:57;100654.69;;;-3.81;100.00
60871;BME280;46714;50.118;14.462;2024-01-30T03:32:23;100645.66;;;-3.79;100.00
60871;BME280;46714;50.118;14.462;2024-01-30T03:34:48;100653.81;;;-3.82;100.00
60871;BME280;46714;50.118;14.462;2024-01-30T03:37:14;100648.44;;;-3.80;100.00
60871;BME280;46714;50.118;14.462;2024-01-30T03:39:39;100642.06;;;-3.77;100.00
60871;BME280;46714;50.118;14.462;2024-01-30T03:42:04;100651.56;;;-3.73;100.00
60871;BME280;46714;50.118;14.462;2024-01-30T03:44:30;100649.78;;;-3.73;100.00
60871;BME280;46714;50.118;14.462;2024-01-30T03:46:55;100648.06;;;-3.74;100.00
60871;BME280;46714;50.118;14.462;2024-01-30T03:49:20;100648.00;;;-3.72;100.00
60871;BME280;46714;50.118;14.462;2024-01-30T03:51:46;100652.34;;;-3.71;100.00
60871;BME280;46714;50.118;14.462;2024-01-30T03:54:12;100648.00;;;-3.72;100.00
60871;BME280;46714;50.118;14.462;2024-01-30T03:56:38;100642.47;;;-3.69;100.00
60871;BME280;46714;50.118;14.462;2024-01-30T03:59:03;100635.19;;;-3.66;100.00
60871;BME280;46714;50.118;14.462;2024-01-30T04:01:28;100639.47;;;-3.63;100.00
60871;BME280;46714;50.118;14.462;2024-01-30T04:03:54;100635.09;;;-3.64;100.00
60871;BME280;46714;50.118;14.462;2024-01-30T04:06:19;100634.84;;;-3.60;100.00
60871;BME280;46714;50.118;14.462;2024-01-30T04:08:45;100632.84;;;-3.56;100.00
60871;BME280;46714;50.118;14.462;2024-01-30T04:11:10;100624.09;;;-3.58;100.00
60871;BME280;46714;50.118;14.462;2024-01-30T04:13:35;100630.53;;;-3.62;100.00
60871;BME280;46714;50.118;14.462;2024-01-30T04:16:01;100622.56;;;-3.62;100.00
60871;BME280;46714;50.118;14.462;2024-01-30T04:18:27;100628.66;;;-3.60;100.00
60871;BME280;46714;50.118;14.462;2024-01-30T04:20:53;100637.41;;;-3.58;100.00
60871;BME280;46714;50.118;14.462;2024-01-30T04:23:19;100627.72;;;-3.59;100.00
60871;BME280;46714;50.118;14.462;2024-01-30T04:25:44;100633.81;;;-3.57;100.00
60871;BME280;46714;50.118;14.462;2024-01-30T04:28:10;100634.47;;;-3.53;100.00
60871;BME280;46714;50.118;14.462;2024-01-30T04:30:38;100631.75;;;-3.52;100.00
60871;BME280;46714;50.118;14.462;2024-01-30T04:33:04;100631.75;;;-3.52;100.00
60871;BME280;46714;50.118;14.462;2024-01-30T04:35:29;100634.66;;;-3.56;100.00
60871;BME280;46714;50.118;14.462;2024-01-30T04:37:55;100632.09;;;-3.58;100.00
60871;BME280;46714;50.118;14.462;2024-01-30T04:40:20;100644.47;;;-3.57;100.00
60871;BME280;46714;50.118;14.462;2024-01-30T04:42:46;100643.16;;;-3.50;100.00
60871;BME280;46714;50.118;14.462;2024-01-30T04:45:12;100643.94;;;-3.48;100.00
60871;BME280;46714;50.118;14.462;2024-01-30T04:47:37;100639.47;;;-3.47;100.00
60871;BME280;46714;50.118;14.462;2024-01-30T04:50:04;100640.38;;;-3.48;100.00
60871;BME280;46714;50.118;14.462;2024-01-30T04:52:31;100643.22;;;-3.51;100.00
60871;BME280;46714;50.118;14.462;2024-01-30T04:54:56;100638.94;;;-3.54;100.00
60871;BME280;46714;50.118;14.462;2024-01-30T04:57:22;100640.91;;;-3.58;100.00
60871;BME280;46714;50.118;14.462;2024-01-30T04:59:47;100646.44;;;-3.61;100.00
60871;BME280;46714;50.118;14.462;2024-01-30T05:02:13;100650.81;;;-3.60;100.00
60871;BME280;46714;50.118;14.462;2024-01-30T05:04:38;100649.78;;;-3.57;100.00
60871;BME280;46714;50.118;14.462;2024-01-30T05:07:03;100650.72;;;-3.58;100.00
60871;BME280;46714;50.118;14.462;2024-01-30T05:09:29;100653.38;;;-3.58;100.00
60871;BME280;46714;50.118;14.462;2024-01-30T05:11:54;100657.78;;;-3.57;100.00
60871;BME280;46714;50.118;14.462;2024-01-30T05:14:21;100656.03;;;-3.58;100.00
60871;BME280;46714;50.118;14.462;2024-01-30T05:16:47;100654.16;;;-3.56;100.00
60871;BME280;46714;50.118;14.462;2024-01-30T05:19:15;100656.03;;;-3.58;100.00
60871;BME280;46714;50.118;14.462;2024-01-30T05:21:42;100655.09;;;-3.57;100.00
60871;BME280;46714;50.118;14.462;2024-01-30T05:24:07;100659.53;;;-3.58;100.00
60871;BME280;46714;50.118;14.462;2024-01-30T05:26:34;100664.72;;;-3.54;100.00
60871;BME280;46714;50.118;14.462;2024-01-30T05:29:00;100657.59;;;-3.54;100.00
60871;BME280;46714;50.118;14.462;2024-01-30T05:31:25;100658.16;;;-3.49;100.00
60871;BME280;46714;50.118;14.462;2024-01-30T05:33:52;100659.91;;;-3.48;100.00
60871;BME280;46714;50.118;14.462;2024-01-30T05:36:17;100658.00;;;-3.46;100.00
60871;BME280;46714;50.118;14.462;2024-01-30T05:38:43;100654.38;;;-3.45;100.00
60871;BME280;46714;50.118;14.462;2024-01-30T05:41:08;100648.28;;;-3.47;100.00
60871;BME280;46714;50.118;14.462;2024-01-30T05:43:34;100652.00;;;-3.49;100.00
60871;BME280;46714;50.118;14.462;2024-01-30T05:45:59;100642.97;;;-3.47;100.00
60871;BME280;46714;50.118;14.462;2024-01-30T05:48:25;100650.63;;;-3.41;100.00
60871;BME280;46714;50.118;14.462;2024-01-30T05:50:51;100654.81;;;-3.37;100.00
60871;BME280;46714;50.118;14.462;2024-01-30T05:53:16;100653.84;;;-3.35;100.00
60871;BME280;46714;50.118;14.462;2024-01-30T05:55:42;100653.84;;;-3.35;100.00
60871;BME280;46714;50.118;14.462;2024-01-30T05:58:07;100645.03;;;-3.36;100.00
60871;BME280;46714;50.118;14.462;2024-01-30T06:00:32;100647.75;;;-3.38;100.00
60871;BME280;46714;50.118;14.462;2024-01-30T06:02:58;100650.50;;;-3.39;100.00
60871;BME280;46714;50.118;14.462;2024-01-30T06:05:23;100646.84;;;-3.37;100.00
60871;BME280;46714;50.118;14.462;2024-01-30T06:07:48;100652.22;;;-3.38;100.00
60871;BME280;46714;50.118;14.462;2024-01-30T06:10:14;100644.16;;;-3.37;100.00
60871;BME280;46714;50.118;14.462;2024-01-30T06:12:39;100643.22;;;-3.35;100.00
60871;BME280;46714;50.118;14.462;2024-01-30T06:15:05;100645.69;;;-3.32;100.00
60871;BME280;46714;50.118;14.462;2024-01-30T06:17:31;100643.13;;;-3.34;100.00
60871;BME280;46714;50.118;14.462;2024-01-30T06:19:57;100649.38;;;-3.35;100.00
60871;BME280;46714;50.118;14.462;2024-01-30T06:22:22;100637.31;;;-3.41;100.00
60871;BME280;46714;50.118;14.462;2024-01-30T06:24:48;100646.22;;;-3.42;100.00
60871;BME280;46714;50.118;14.462;2024-01-30T06:27:14;100640.31;;;-3.47;100.00
60871;BME280;46714;50.118;14.462;2024-01-30T06:29:40;100648.47;;;-3.50;100.00
60871;BME280;46714;50.118;14.462;2024-01-30T06:32:07;100650.56;;;-3.55;100.00
60871;BME280;46714;50.118;14.462;2024-01-30T06:34:33;100658.53;;;-3.55;100.00
60871;BME280;46714;50.118;14.462;2024-01-30T06:36:58;100657.00;;;-3.59;100.00
60871;BME280;46714;50.118;14.462;2024-01-30T06:39:24;100666.69;;;-3.58;100.00
60871;BME280;46714;50.118;14.462;2024-01-30T06:41:50;100667.53;;;-3.58;100.00
60871;BME280;46714;50.118;14.462;2024-01-30T06:44:15;100663.44;;;-3.63;100.00
60871;BME280;46714;50.118;14.462;2024-01-30T06:46:40;100666.09;;;-3.63;100.00
60871;BME280;46714;50.118;14.462;2024-01-30T06:49:06;100663.63;;;-3.66;100.00
60871;BME280;46714;50.118;14.462;2024-01-30T06:51:31;100674.41;;;-3.69;100.00
60871;BME280;46714;50.118;14.462;2024-01-30T06:53:57;100667.91;;;-3.64;100.00
60871;BME280;46714;50.118;14.462;2024-01-30T06:56:22;100663.69;;;-3.68;100.00
60871;BME280;46714;50.118;14.462;2024-01-30T06:58:48;100669.88;;;-3.67;100.00
60871;BME280;46714;50.118;14.462;2024-01-30T07:01:14;100673.47;;;-3.68;100.00
60871;BME280;46714;50.118;14.462;2024-01-30T07:03:41;100676.22;;;-3.70;100.00
60871;BME280;46714;50.118;14.462;2024-01-30T07:06:07;100680.84;;;-3.73;100.00
60871;BME280;46714;50.118;14.462;2024-01-30T07:08:33;100676.41;;;-3.73;100.00
60871;BME280;46714;50.118;14.462;2024-01-30T07:10:58;100685.25;;;-3.72;100.00
60871;BME280;46714;50.118;14.462;2024-01-30T07:13:24;100683.44;;;-3.72;100.00
60871;BME280;46714;50.118;14.462;2024-01-30T07:15:49;100685.31;;;-3.74;100.00
60871;BME280;46714;50.118;14.462;2024-01-30T07:18:15;100681.97;;;-3.77;100.00
60871;BME280;46714;50.118;14.462;2024-01-30T07:20:40;100681.88;;;-3.76;100.00
60871;BME280;46714;50.118;14.462;2024-01-30T07:23:12;100686.00;;;-3.70;100.00
60871;BME280;46714;50.118;14.462;2024-01-30T07:25:42;100690.22;;;-3.66;100.00
60871;BME280;46714;50.118;14.462;2024-01-30T07:28:11;100691.66;;;-3.61;100.00
60871;BME280;46714;50.118;14.462;2024-01-30T07:30:41;100693.22;;;-3.56;100.00
60871;BME280;46714;50.118;14.462;2024-01-30T07:33:08;100690.63;;;-3.58;100.00
60871;BME280;46714;50.118;14.462;2024-01-30T07:35:34;100687.81;;;-3.55;100.00
60871;BME280;46714;50.118;14.462;2024-01-30T07:37:59;100689.69;;;-3.57;100.00
60871;BME280;46714;50.118;14.462;2024-01-30T07:40:25;100691.47;;;-3.58;100.00
60871;BME280;46714;50.118;14.462;2024-01-30T07:42:50;100696.53;;;-3.53;100.00
60871;BME280;46714;50.118;14.462;2024-01-30T07:45:15;100693.88;;;-3.53;100.00
60871;BME280;46714;50.118;14.462;2024-01-30T07:47:41;100705.31;;;-3.51;100.00
60871;BME280;46714;50.118;14.462;2024-01-30T07:50:07;100699.72;;;-3.46;100.00
60871;BME280;46714;50.118;14.462;2024-01-30T07:52:33;100703.16;;;-3.44;100.00
60871;BME280;46714;50.118;14.462;2024-01-30T07:54:59;100703.06;;;-3.43;100.00
60871;BME280;46714;50.118;14.462;2024-01-30T07:57:24;100711.56;;;-3.36;100.00
60871;BME280;46714;50.118;14.462;2024-01-30T07:59:50;100705.13;;;-3.32;100.00
60871;BME280;46714;50.118;14.462;2024-01-30T08:02:15;100701.44;;;-3.29;100.00
60871;BME280;46714;50.118;14.462;2024-01-30T08:04:40;100695.94;;;-3.26;100.00
60871;BME280;46714;50.118;14.462;2024-01-30T08:07:06;100704.50;;;-3.21;100.00
60871;BME280;46714;50.118;14.462;2024-01-30T08:09:31;100694.88;;;-3.24;100.00
60871;BME280;46714;50.118;14.462;2024-01-30T08:11:57;100704.75;;;-3.26;100.00
60871;BME280;46714;50.118;14.462;2024-01-30T08:14:22;100697.63;;;-3.25;100.00
60871;BME280;46714;50.118;14.462;2024-01-30T08:16:47;100700.22;;;-3.24;100.00
60871;BME280;46714;50.118;14.462;2024-01-30T08:19:14;100690.34;;;-3.22;100.00
60871;BME280;46714;50.118;14.462;2024-01-30T08:21:39;100691.88;;;-3.18;100.00
60871;BME280;46714;50.118;14.462;2024-01-30T08:24:05;100696.44;;;-3.20;100.00
60871;BME280;46714;50.118;14.462;2024-01-30T08:26:31;100689.41;;;-3.21;100.00
60871;BME280;46714;50.118;14.462;2024-01-30T08:28:57;100697.97;;;-3.16;100.00
60871;BME280;46714;50.118;14.462;2024-01-30T08:31:23;100692.38;;;-3.11;100.00
60871;BME280;46714;50.118;14.462;2024-01-30T08:33:48;100684.00;;;-3.05;100.00
60871;BME280;46714;50.118;14.462;2024-01-30T08:36:14;100692.69;;;-3.01;100.00
60871;BME280;46714;50.118;14.462;2024-01-30T08:38:40;100690.88;;;-3.01;100.00
60871;BME280;46714;50.118;14.462;2024-01-30T08:41:06;100691.66;;;-2.99;100.00
60871;BME280;46714;50.118;14.462;2024-01-30T08:43:32;100696.91;;;-2.97;100.00
60871;BME280;46714;50.118;14.462;2024-01-30T08:46:00;100695.00;;;-2.95;100.00
60871;BME280;46714;50.118;14.462;2024-01-30T08:48:26;100693.00;;;-2.91;100.00
60871;BME280;46714;50.118;14.462;2024-01-30T08:50:52;100686.53;;;-2.87;100.00
60871;BME280;46714;50.118;14.462;2024-01-30T08:53:17;100686.28;;;-2.83;100.00
60871;BME280;46714;50.118;14.462;2024-01-30T08:55:43;100692.19;;;-2.78;100.00
60871;BME280;46714;50.118;14.462;2024-01-30T08:58:09;100686.28;;;-2.68;100.00
60871;BME280;46714;50.118;14.462;2024-01-30T09:00:34;100681.66;;;-2.65;100.00
60871;BME280;46714;50.118;14.462;2024-01-30T09:03:00;100685.66;;;-2.58;100.00
60871;BME280;46714;50.118;14.462;2024-01-30T09:05:25;100683.06;;;-2.59;100.00
60871;BME280;46714;50.118;14.462;2024-01-30T09:07:50;100681.16;;;-2.57;100.00
60871;BME280;46714;50.118;14.462;2024-01-30T09:10:16;100689.00;;;-2.54;100.00
60871;BME280;46714;50.118;14.462;2024-01-30T09:12:41;100685.44;;;-2.55;100.00
60871;BME280;46714;50.118;14.462;2024-01-30T09:15:06;100683.56;;;-2.53;100.00
60871;BME280;46714;50.118;14.462;2024-01-30T09:17:32;100681.47;;;-2.47;100.00
60871;BME280;46714;50.118;14.462;2024-01-30T09:19:58;100687.19;;;-2.39;100.00
60871;BME280;46714;50.118;14.462;2024-01-30T09:22:23;100676.25;;;-2.35;100.00
60871;BME280;46714;50.118;14.462;2024-01-30T09:24:49;100675.75;;;-2.27;100.00
60871;BME280;46714;50.118;14.462;2024-01-30T09:27:15;100682.25;;;-2.17;100.00
60871;BME280;46714;50.118;14.462;2024-01-30T09:29:40;100688.81;;;-2.08;100.00
60871;BME280;46714;50.118;14.462;2024-01-30T09:32:06;100690.31;;;-2.04;100.00
60871;BME280;46714;50.118;14.462;2024-01-30T09:34:31;100686.13;;;-1.94;100.00
60871;BME280;46714;50.118;14.462;2024-01-30T09:36:58;100685.94;;;-1.91;100.00
60871;BME280;46714;50.118;14.462;2024-01-30T09:39:25;100684.78;;;-1.86;100.00
60871;BME280;46714;50.118;14.462;2024-01-30T09:44:42;100688.00;;;-1.81;100.00
60871;BME280;46714;50.118;14.462;2024-01-30T09:47:08;100683.16;;;-1.75;100.00
60871;BME280;46714;50.118;14.462;2024-01-30T09:49:35;100679.88;;;-1.65;100.00
60871;BME280;46714;50.118;14.462;2024-01-30T09:52:01;100681.88;;;-1.55;100.00
60871;BME280;46714;50.118;14.462;2024-01-30T09:54:29;100676.00;;;-1.47;100.00
60871;BME280;46714;50.118;14.462;2024-01-30T09:56:56;100682.56;;;-1.38;100.00
60871;BME280;46714;50.118;14.462;2024-01-30T09:59:22;100673.31;;;-1.33;100.00
60871;BME280;46714;50.118;14.462;2024-01-30T10:01:47;100665.84;;;-1.28;100.00
60871;BME280;46714;50.118;14.462;2024-01-30T10:04:14;100672.88;;;-1.27;100.00
60871;BME280;46714;50.118;14.462;2024-01-30T10:06:40;100667.06;;;-1.19;100.00
60871;BME280;46714;50.118;14.462;2024-01-30T10:09:11;100671.88;;;-1.11;100.00
60871;BME280;46714;50.118;14.462;2024-01-30T10:11:36;100666.97;;;-1.04;100.00
60871;BME280;46714;50.118;14.462;2024-01-30T10:14:02;100663.34;;;-1.03;100.00
60871;BME280;46714;50.118;14.462;2024-01-30T10:16:28;100658.44;;;-0.97;100.00
60871;BME280;46714;50.118;14.462;2024-01-30T10:18:53;100658.03;;;-0.91;100.00
60871;BME280;46714;50.118;14.462;2024-01-30T10:21:19;100653.97;;;-0.83;100.00
60871;BME280;46714;50.118;14.462;2024-01-30T10:23:44;100650.88;;;-0.77;100.00
60871;BME280;46714;50.118;14.462;2024-01-30T10:26:10;100646.06;;;-0.72;100.00
60871;BME280;46714;50.118;14.462;2024-01-30T10:28:35;100645.84;;;-0.69;100.00
60871;BME280;46714;50.118;14.462;2024-01-30T10:31:01;100644.47;;;-0.62;100.00
60871;BME280;46714;50.118;14.462;2024-01-30T10:33:29;100649.63;;;-0.59;100.00
60871;BME280;46714;50.118;14.462;2024-01-30T10:36:01;100650.38;;;-0.57;100.00
60871;BME280;46714;50.118;14.462;2024-01-30T10:38:28;100650.38;;;-0.57;100.00
60871;BME280;46714;50.118;14.462;2024-01-30T10:40:59;100646.72;;;-0.56;100.00
60871;BME280;46714;50.118;14.462;2024-01-30T10:43:30;100644.69;;;-0.52;100.00
60871;BME280;46714;50.118;14.462;2024-01-30T10:48:46;100638.28;;;-0.50;100.00
60871;BME280;46714;50.118;14.462;2024-01-30T10:51:22;100644.38;;;-0.48;100.00
60871;BME280;46714;50.118;14.462;2024-01-30T10:53:48;100637.53;;;-0.52;100.00
60871;BME280;46714;50.118;14.462;2024-01-30T10:56:14;100629.41;;;-0.50;100.00
60871;BME280;46714;50.118;14.462;2024-01-30T10:58:41;100638.59;;;-0.54;100.00
60871;BME280;46714;50.118;14.462;2024-01-30T11:01:07;100632.50;;;-0.56;100.00
60871;BME280;46714;50.118;14.462;2024-01-30T11:03:33;100635.09;;;-0.55;100.00
60871;BME280;46714;50.118;14.462;2024-01-30T11:06:01;100626.84;;;-0.52;100.00
60871;BME280;46714;50.118;14.462;2024-01-30T11:08:27;100632.81;;;-0.48;100.00
60871;BME280;46714;50.118;14.462;2024-01-30T11:10:56;100629.81;;;-0.44;100.00
60871;BME280;46714;50.118;14.462;2024-01-30T11:13:26;100622.97;;;-0.48;100.00
60871;BME280;46714;50.118;14.462;2024-01-30T11:15:53;100613.13;;;-0.47;100.00
60871;BME280;46714;50.118;14.462;2024-01-30T11:18:25;100616.56;;;-0.45;100.00
60871;BME280;46714;50.118;14.462;2024-01-30T11:20:55;100618.69;;;-0.37;100.00
60871;BME280;46714;50.118;14.462;2024-01-30T11:23:22;100613.13;;;-0.34;100.00
60871;BME280;46714;50.118;14.462;2024-01-30T11:25:47;100611.19;;;-0.32;100.00
60871;BME280;46714;50.118;14.462;2024-01-30T11:28:16;100605.72;;;-0.31;100.00
60871;BME280;46714;50.118;14.462;2024-01-30T11:30:42;100613.31;;;-0.25;100.00
60871;BME280;46714;50.118;14.462;2024-01-30T11:33:08;100617.28;;;-0.17;100.00
60871;BME280;46714;50.118;14.462;2024-01-30T11:35:40;100606.47;;;-0.16;100.00
60871;BME280;46714;50.118;14.462;2024-01-30T11:38:10;100606.22;;;-0.13;100.00
60871;BME280;46714;50.118;14.462;2024-01-30T11:40:38;100604.50;;;-0.14;100.00
60871;BME280;46714;50.118;14.462;2024-01-30T11:43:05;100601.97;;;-0.15;100.00
60871;BME280;46714;50.118;14.462;2024-01-30T11:45:32;100606.22;;;-0.13;100.00
60871;BME280;46714;50.118;14.462;2024-01-30T11:47:59;100592.84;;;-0.13;100.00
60871;BME280;46714;50.118;14.462;2024-01-30T11:50:26;100597.88;;;-0.08;100.00
60871;BME280;46714;50.118;14.462;2024-01-30T11:52:52;100592.28;;;-0.05;100.00
60871;BME280;46714;50.118;14.462;2024-01-30T11:55:19;100592.19;;;-0.04;100.00
60871;BME280;46714;50.118;14.462;2024-01-30T11:57:45;100592.94;;;-0.02;100.00
60871;BME280;46714;50.118;14.462;2024-01-30T12:00:14;100586.72;;;-0.02;100.00
60871;BME280;46714;50.118;14.462;2024-01-30T12:02:41;100585.97;;;-0.04;100.00
60871;BME280;46714;50.118;14.462;2024-01-30T12:05:07;100582.22;;;-0.02;100.00
60871;BME280;46714;50.118;14.462;2024-01-30T12:07:33;100582.97;;;0.01;100.00
60871;BME280;46714;50.118;14.462;2024-01-30T12:09:59;100577.47;;;0.02;100.00
60871;BME280;46714;50.118;14.462;2024-01-30T12:12:25;100574.94;;;0.01;100.00
60871;BME280;46714;50.118;14.462;2024-01-30T12:14:51;100575.78;;;0.01;100.00
60871;BME280;46714;50.118;14.462;2024-01-30T12:17:30;100575.44;;;0.06;100.00
60871;BME280;46714;50.118;14.462;2024-01-30T12:20:17;100566.34;;;0.08;100.00
60871;BME280;46714;50.118;14.462;2024-01-30T12:22:44;100564.41;;;0.10;100.00
60871;BME280;46714;50.118;14.462;2024-01-30T12:25:15;100564.06;;;0.15;100.00
60871;BME280;46714;50.118;14.462;2024-01-30T12:27:42;100564.16;;;0.13;100.00
60871;BME280;46714;50.118;14.462;2024-01-30T12:30:09;100563.09;;;0.16;100.00